createdAt,value
2018-04-02T00:03:03.831Z,97.43
2018-04-02T00:06:07.744Z,98.33
2018-04-02T00:09:12.476Z,106.60
2018-04-02T00:12:16.786Z,103.37
2018-04-02T00:15:21.422Z,102.27
2018-04-02T00:18:25.309Z,93.53
2018-04-02T00:21:31.723Z,87.03
2018-04-02T00:24:36.661Z,88.70
2018-04-02T00:27:41.364Z,82.97
2018-04-02T00:30:45.244Z,79.77
2018-04-02T00:33:49.217Z,75.67
2018-04-02T00:36:53.125Z,70.90
2018-04-02T00:39:58.223Z,72.53
2018-04-02T00:43:02.424Z,72.83
2018-04-02T00:46:06.233Z,74.07
2018-04-02T00:49:10.180Z,72.10
2018-04-02T00:52:14.848Z,73.00
2018-04-02T00:55:18.793Z,71.97
2018-04-02T00:58:23.415Z,69.90
2018-04-02T01:01:27.251Z,71.27
2018-04-02T01:04:31.149Z,72.77
2018-04-02T01:07:35.759Z,71.57
2018-04-02T01:10:39.582Z,72.23
2018-04-02T01:13:44.272Z,70.27
2018-04-02T01:16:48.477Z,70.87
2018-04-02T01:19:52.741Z,68.73
2018-04-02T01:22:57.803Z,75.13
2018-04-02T01:26:01.646Z,73.20
2018-04-02T01:29:05.492Z,72.77
2018-04-02T01:32:13.629Z,72.67
2018-04-02T01:35:17.849Z,75.60
2018-04-02T01:38:21.693Z,70.70
2018-04-02T01:41:25.958Z,72.87
2018-04-02T01:44:30.528Z,72.60
2018-04-02T01:47:38.678Z,72.03
2018-04-02T01:50:42.478Z,73.87
2018-04-02T01:53:47.357Z,69.33
2018-04-02T01:56:52.033Z,68.60
2018-04-02T01:59:57.258Z,65.37
2018-04-02T02:03:01.865Z,62.00
2018-04-02T02:06:06.645Z,61.00
2018-04-02T02:09:10.457Z,59.07
2018-04-02T02:12:14.414Z,60.30
2018-04-02T02:15:18.662Z,57.50
2018-04-02T02:18:22.518Z,60.63
2018-04-02T02:21:26.820Z,65.63
2018-04-02T02:24:31.998Z,63.03
2018-04-02T02:27:35.905Z,64.53
2018-04-02T02:30:39.737Z,62.67
2018-04-02T02:33:44.530Z,59.83
2018-04-02T02:36:48.870Z,62.37
2018-04-02T02:39:52.701Z,62.10
2018-04-02T02:42:57.001Z,66.10
2018-04-02T02:46:01.069Z,61.60
2018-04-02T02:49:04.913Z,62.63
2018-04-02T02:52:09.482Z,64.43
2018-04-02T02:55:14.866Z,64.43
2018-04-02T02:58:18.806Z,61.37
2018-04-02T03:01:23.374Z,63.50
2018-04-02T03:04:27.222Z,63.73
2018-04-02T03:07:31.556Z,60.23
2018-04-02T03:10:35.858Z,64.27
2018-04-02T03:13:41.020Z,68.97
2018-04-02T03:16:45.009Z,62.57
2018-04-02T03:19:49.266Z,65.93
2018-04-02T03:22:53.337Z,70.33
2018-04-02T03:25:57.273Z,65.87
2018-04-02T03:29:01.910Z,63.83
2018-04-02T03:32:06.044Z,67.27
2018-04-02T03:35:10.501Z,65.33
2018-04-02T03:38:14.446Z,68.53
2018-04-02T03:41:19.085Z,63.00
2018-04-02T03:44:23.711Z,65.00
2018-04-02T03:47:27.589Z,65.97
2018-04-02T03:50:31.517Z,64.00
2018-04-02T03:53:35.736Z,63.70
2018-04-02T03:56:39.580Z,67.37
2018-04-02T03:59:43.872Z,66.67
2018-04-02T04:02:48.673Z,65.23
2018-04-02T04:05:52.488Z,64.30
2018-04-02T04:08:56.457Z,67.53
2018-04-02T04:12:00.309Z,64.23
2018-04-02T04:15:04.915Z,60.93
2018-04-02T04:18:08.753Z,69.83
2018-04-02T04:21:13.724Z,69.00
2018-04-02T04:24:18.585Z,67.23
2018-04-02T04:27:22.476Z,67.27
2018-04-02T04:30:26.953Z,67.57
2018-04-02T04:33:31.369Z,68.23
2018-04-02T04:36:39.750Z,70.63
2018-04-02T04:39:43.573Z,68.13
2018-04-02T04:42:47.468Z,66.73
2018-04-02T04:45:51.718Z,69.57
2018-04-02T04:48:55.981Z,68.37
2018-04-02T04:52:00.278Z,71.27
2018-04-02T04:55:04.073Z,75.17
2018-04-02T04:58:08.660Z,68.87
2018-04-02T05:01:12.553Z,73.87
2018-04-02T05:04:16.473Z,76.40
2018-04-02T05:07:20.423Z,69.20
2018-04-02T05:10:24.337Z,70.40
2018-04-02T05:13:28.657Z,76.80
2018-04-02T05:16:32.948Z,79.80
2018-04-02T05:19:36.761Z,79.60
2018-04-02T05:22:42.187Z,82.83
2018-04-02T05:25:46.073Z,80.07
2018-04-02T05:28:50.465Z,83.30
2018-04-02T05:31:55.326Z,84.90
2018-04-02T05:34:59.309Z,91.80
2018-04-02T05:38:03.222Z,95.40
2018-04-02T05:41:07.057Z,93.13
2018-04-02T05:44:11.680Z,89.50
2018-04-02T05:47:15.517Z,94.27
2018-04-02T05:50:20.100Z,89.60
2018-04-02T05:53:29.330Z,89.83
2018-04-02T05:56:33.894Z,91.30
2018-04-02T05:59:38.140Z,85.07
2018-04-02T06:02:42.464Z,94.10
2018-04-02T06:05:46.661Z,94.10
2018-04-02T06:08:51.379Z,89.17
2018-04-02T06:11:55.693Z,90.33
2018-04-02T06:15:00.107Z,87.77
2018-04-02T06:18:03.917Z,87.23
2018-04-02T06:21:07.892Z,89.60
2018-04-02T06:24:12.672Z,88.23
2018-04-02T06:27:16.908Z,90.03
2018-04-02T06:30:20.854Z,91.63
2018-04-02T06:33:24.653Z,79.47
2018-04-02T06:36:28.617Z,85.07
2018-04-02T06:39:32.650Z,84.87
2018-04-02T06:42:36.450Z,85.33
2018-04-02T06:45:44.350Z,87.63
2018-04-02T06:48:49.005Z,85.07
2018-04-02T06:51:53.674Z,93.23
2018-04-02T06:54:58.321Z,93.00
2018-04-02T06:58:02.562Z,86.87
2018-04-02T07:01:06.868Z,89.10
2018-04-02T07:04:12.064Z,92.47
2018-04-02T07:07:16.615Z,88.03
2018-04-02T07:10:21.133Z,87.50
2018-04-02T07:13:24.966Z,88.67
2018-04-02T07:16:29.843Z,87.73
2018-04-02T07:19:34.143Z,84.30
2018-04-02T07:22:38.077Z,83.83
2018-04-02T07:25:42.070Z,83.07
2018-04-02T07:28:46.727Z,83.13
2018-04-02T07:31:51.173Z,85.20
2018-04-02T07:34:57.718Z,79.20
2018-04-02T07:38:02.397Z,78.60
2018-04-02T07:41:06.325Z,76.87
2018-04-02T07:44:11.273Z,77.40
2018-04-02T07:47:15.677Z,74.70
2018-04-02T07:50:20.297Z,76.13
2018-04-02T07:53:25.596Z,75.87
2018-04-02T07:56:31.097Z,76.03
2018-04-02T07:59:35.902Z,75.73
2018-04-02T08:02:40.524Z,71.77
2018-04-02T08:05:44.529Z,71.43
2018-04-02T08:08:48.458Z,70.20
2018-04-02T08:11:53.488Z,65.70
2018-04-02T08:14:57.683Z,65.47
2018-04-02T08:18:03.275Z,65.60
2018-04-02T08:21:08.825Z,63.10
2018-04-02T08:24:13.592Z,60.13
2018-04-02T08:27:22.535Z,58.47
2018-04-02T08:30:26.449Z,56.17
2018-04-02T08:33:39.955Z,60.17
2018-04-02T08:36:44.296Z,56.00
2018-04-02T08:39:48.485Z,53.10
2018-04-02T08:42:53.174Z,51.30
2018-04-02T08:45:57.102Z,51.37
2018-04-02T08:49:01.776Z,51.43
2018-04-02T08:52:05.640Z,51.33
2018-04-02T08:55:09.912Z,46.77
2018-04-02T08:58:16.449Z,46.53
2018-04-02T09:01:20.404Z,44.47
2018-04-02T09:04:24.305Z,43.93
2018-04-02T09:07:28.113Z,45.60
2018-04-02T09:10:32.122Z,44.10
2018-04-02T09:13:37.015Z,45.77
2018-04-02T09:16:40.994Z,47.23
2018-04-02T09:19:45.249Z,45.50
2018-04-02T09:22:49.201Z,43.87
2018-04-02T09:25:54.318Z,43.10
2018-04-02T09:28:58.312Z,43.97
2018-04-02T09:32:02.125Z,42.03
2018-04-02T09:35:06.648Z,42.03
2018-04-02T09:38:10.499Z,35.70
2018-04-02T09:41:15.588Z,33.33
2018-04-02T09:44:19.857Z,32.67
2018-04-02T09:47:24.568Z,35.03
2018-04-02T09:50:28.857Z,33.87
2018-04-02T09:53:32.809Z,33.57
2018-04-02T09:56:37.090Z,34.87
2018-04-02T09:59:41.756Z,32.23
2018-04-02T10:02:46.400Z,30.87
2018-04-02T10:05:55.053Z,28.57
2018-04-02T10:09:00.571Z,29.87
2018-04-02T10:12:04.428Z,28.93
2018-04-02T10:15:09.536Z,29.03
2018-04-02T10:18:15.505Z,26.13
2018-04-02T10:21:20.425Z,29.67
2018-04-02T10:24:24.229Z,27.27
2018-04-02T10:27:28.536Z,28.13
2018-04-02T10:30:32.373Z,28.83
2018-04-02T10:33:36.260Z,29.57
2018-04-02T10:36:40.117Z,27.20
2018-04-02T10:39:44.344Z,27.87
2018-04-02T10:42:50.417Z,26.93
2018-04-02T10:45:54.321Z,27.00
2018-04-02T10:48:59.113Z,26.77
2018-04-02T10:52:03.475Z,28.13
2018-04-02T10:55:08.048Z,28.03
2018-04-02T10:58:12.661Z,25.23
2018-04-02T11:01:16.558Z,21.70
2018-04-02T11:04:21.277Z,24.93
2018-04-02T11:07:26.309Z,25.63
2018-04-02T11:10:30.596Z,23.50
2018-04-02T11:13:39.860Z,23.93
2018-04-02T11:16:44.391Z,22.27
2018-04-02T11:19:49.344Z,24.03
2018-04-02T11:22:54.954Z,24.30
2018-04-02T11:25:58.827Z,23.23
2018-04-02T11:29:02.746Z,22.67
2018-04-02T11:32:06.665Z,23.40
2018-04-02T11:35:11.353Z,23.80
2018-04-02T11:38:15.606Z,22.10
2018-04-02T11:41:19.916Z,22.63
2018-04-02T11:44:26.177Z,22.17
2018-04-02T11:47:30.816Z,21.93
2018-04-02T11:50:34.729Z,22.47
2018-04-02T11:53:39.465Z,22.23
2018-04-02T11:56:44.045Z,21.73
2018-04-02T11:59:49.244Z,21.70
2018-04-02T12:02:54.512Z,21.43
2018-04-02T12:05:58.781Z,18.73
2018-04-02T12:09:03.712Z,19.43
2018-04-02T12:12:07.632Z,20.07
2018-04-02T12:15:11.850Z,20.60
2018-04-02T12:18:16.101Z,20.37
2018-04-02T12:21:20.807Z,19.00
2018-04-02T12:24:26.062Z,17.37
2018-04-02T12:27:30.633Z,13.77
2018-04-02T12:30:35.320Z,14.73
2018-04-02T12:33:39.238Z,12.93
2018-04-02T12:36:43.594Z,12.03
2018-04-02T12:39:47.578Z,6.80
2018-04-02T12:42:52.546Z,6.27
2018-04-02T12:45:57.667Z,5.53
2018-04-02T12:49:01.910Z,3.90
2018-04-02T12:52:06.514Z,5.27
2018-04-02T12:55:10.441Z,5.00
2018-04-02T12:58:14.691Z,4.83
2018-04-02T13:01:18.628Z,5.20
2018-04-02T13:04:23.366Z,6.87
2018-04-02T13:07:28.806Z,6.80
2018-04-02T13:10:33.036Z,7.00
2018-04-02T13:13:37.698Z,6.17
2018-04-02T13:16:41.557Z,6.97
2018-04-02T13:19:46.132Z,6.87
2018-04-02T13:22:50.107Z,7.33
2018-04-02T13:25:54.516Z,6.53
2018-04-02T13:28:58.758Z,7.40
2018-04-02T13:32:03.672Z,6.80
2018-04-02T13:35:07.689Z,6.47
2018-04-02T13:38:11.893Z,7.23
2018-04-02T13:41:16.014Z,7.40
2018-04-02T13:44:21.330Z,6.87
2018-04-02T13:47:25.372Z,6.07
2018-04-02T13:50:29.705Z,6.60
2018-04-02T13:53:33.602Z,6.80
2018-04-02T13:56:38.376Z,7.47
2018-04-02T13:59:43.356Z,6.47
2018-04-02T14:02:48.012Z,7.37
2018-04-02T14:05:52.591Z,7.80
2018-04-02T14:08:56.803Z,7.63
2018-04-02T14:12:01.505Z,7.53
2018-04-02T14:15:09.420Z,8.70
2018-04-02T14:18:13.649Z,7.83
2018-04-02T14:21:18.268Z,7.20
2018-04-02T14:24:22.097Z,7.17
2018-04-02T14:27:27.483Z,7.60
2018-04-02T14:30:31.805Z,6.50
2018-04-02T14:33:36.288Z,5.60
2018-04-02T14:36:40.846Z,6.77
2018-04-02T14:39:45.840Z,5.47
2018-04-02T14:42:54.646Z,4.80
2018-04-02T14:45:58.856Z,4.90
2018-04-02T14:49:03.054Z,4.27
2018-04-02T14:52:08.526Z,4.83
2018-04-02T14:55:13.205Z,4.57
2018-04-02T14:58:17.448Z,4.40
2018-04-02T15:01:22.207Z,4.27
2018-04-02T15:04:26.034Z,4.17
2018-04-02T15:07:30.406Z,4.50
2018-04-02T15:10:35.105Z,4.00
2018-04-02T15:13:39.682Z,4.33
2018-04-02T15:16:44.027Z,3.80
2018-04-02T15:19:48.249Z,4.20
2018-04-02T15:22:53.238Z,3.70
2018-04-02T15:25:57.804Z,3.47
2018-04-02T15:29:02.159Z,3.67
2018-04-02T15:32:06.712Z,3.83
2018-04-02T15:35:14.748Z,3.53
2018-04-02T15:38:18.646Z,3.40
2018-04-02T15:41:25.318Z,2.93
2018-04-02T15:44:32.109Z,3.20
2018-04-02T15:47:37.481Z,2.23
2018-04-02T15:50:43.704Z,2.33
2018-04-02T15:53:47.886Z,2.27
2018-04-02T15:56:52.275Z,2.07
2018-04-02T15:59:57.623Z,2.40
2018-04-02T16:03:02.013Z,2.60
2018-04-02T16:06:06.725Z,2.87
2018-04-02T16:09:11.748Z,2.80
2018-04-02T16:12:16.175Z,2.70
2018-04-02T16:15:19.962Z,3.10
2018-04-02T16:18:25.842Z,2.77
2018-04-02T16:21:30.841Z,2.33
2018-04-02T16:24:47.490Z,2.83
2018-04-02T16:27:54.932Z,3.00
2018-04-02T16:31:02.062Z,3.20
2018-04-02T16:34:07.097Z,3.33
2018-04-02T16:37:13.012Z,4.50
2018-04-02T16:40:16.941Z,6.00
2018-04-02T16:43:20.810Z,4.60
2018-04-02T16:46:24.653Z,3.70
2018-04-02T16:49:29.247Z,5.53
2018-04-02T16:52:33.095Z,4.17
2018-04-02T16:55:37.830Z,4.30
2018-04-02T16:58:42.524Z,5.83
2018-04-02T17:01:46.387Z,3.80
2018-04-02T17:04:50.193Z,4.13
2018-04-02T17:07:55.259Z,4.80
2018-04-02T17:10:59.079Z,5.43
2018-04-02T17:14:03.110Z,4.63
2018-04-02T17:17:08.659Z,4.77
2018-04-02T17:20:13.345Z,4.77
2018-04-02T17:23:17.742Z,4.60
2018-04-02T17:26:21.673Z,5.03
2018-04-02T17:29:27.202Z,4.30
2018-04-02T17:32:31.715Z,4.17
2018-04-02T17:35:36.329Z,4.43
2018-04-02T17:38:40.751Z,4.83
2018-04-02T17:41:44.984Z,5.30
2018-04-02T17:44:49.754Z,5.50
2018-04-02T17:47:55.085Z,5.20
2018-04-02T17:50:58.904Z,5.37
2018-04-02T17:54:03.168Z,5.77
2018-04-02T17:57:07.054Z,5.93
2018-04-02T18:00:12.063Z,6.30
2018-04-02T18:03:18.065Z,6.30
2018-04-02T18:06:24.288Z,6.00
2018-04-02T18:09:28.583Z,6.07
2018-04-02T18:12:33.376Z,6.20
2018-04-02T18:15:37.754Z,6.20
2018-04-02T18:18:41.596Z,7.60
2018-04-02T18:21:46.245Z,17.43
2018-04-02T18:24:52.293Z,7.13
2018-04-02T18:27:57.898Z,6.33
2018-04-02T18:31:02.095Z,7.43
2018-04-02T18:34:06.412Z,8.13
2018-04-02T18:37:10.305Z,7.93
2018-04-02T18:40:14.631Z,8.27
2018-04-02T18:43:18.870Z,8.37
2018-04-02T18:46:22.784Z,9.13
2018-04-02T18:49:26.771Z,8.93
2018-04-02T18:52:30.661Z,9.37
2018-04-02T18:55:34.981Z,9.47
2018-04-02T18:58:39.643Z,9.73
2018-04-02T19:01:43.541Z,8.70
2018-04-02T19:04:48.260Z,9.80
2018-04-02T19:07:52.497Z,10.60
2018-04-02T19:10:56.338Z,11.20
2018-04-02T19:14:00.354Z,11.40
2018-04-02T19:17:04.542Z,10.57
2018-04-02T19:20:08.828Z,10.57
2018-04-02T19:23:13.516Z,11.87
2018-04-02T19:26:18.963Z,11.07
2018-04-02T19:29:23.726Z,11.10
2018-04-02T19:32:29.309Z,10.57
2018-04-02T19:35:33.810Z,14.10
2018-04-02T19:38:38.149Z,10.60
2018-04-02T19:41:43.298Z,10.73
2018-04-02T19:44:48.761Z,9.13
2018-04-02T19:47:53.253Z,9.90
2018-04-02T19:50:57.838Z,9.63
2018-04-02T19:54:02.735Z,9.80
2018-04-02T19:57:08.211Z,9.67
2018-04-02T20:00:12.943Z,9.70
2018-04-02T20:03:16.806Z,8.53
2018-04-02T20:06:21.259Z,9.10
2018-04-02T20:09:25.239Z,13.90
2018-04-02T20:12:29.547Z,8.10
2018-04-02T20:15:33.911Z,7.57
2018-04-02T20:18:38.149Z,7.27
2018-04-02T20:21:42.029Z,7.13
2018-04-02T20:24:46.609Z,7.77
2018-04-02T20:27:50.829Z,7.10
2018-04-02T20:30:55.506Z,7.40
2018-04-02T20:33:59.750Z,7.70
2018-04-02T20:37:04.386Z,7.07
2018-04-02T20:40:08.271Z,6.97
2018-04-02T20:43:12.522Z,7.03
2018-04-02T20:46:17.180Z,7.73
2018-04-02T20:49:22.638Z,7.53
2018-04-02T20:52:26.920Z,7.43
2018-04-02T20:55:31.536Z,7.93
2018-04-02T20:58:36.345Z,8.40
2018-04-02T21:01:40.965Z,7.90
2018-04-02T21:04:45.440Z,8.60
2018-04-02T21:07:50.658Z,8.50
2018-04-02T21:10:55.721Z,8.73
2018-04-02T21:14:00.361Z,8.87
2018-04-02T21:17:05.027Z,9.10
2018-04-02T21:20:08.874Z,8.93
2018-04-02T21:23:13.717Z,9.23
2018-04-02T21:26:17.540Z,9.83
2018-04-02T21:29:22.570Z,9.07
2018-04-02T21:32:27.096Z,10.53
2018-04-02T21:35:31.796Z,10.87
2018-04-02T21:38:36.162Z,10.23
2018-04-02T21:41:40.070Z,11.43
2018-04-02T21:44:44.677Z,11.17
2018-04-02T21:47:50.129Z,11.63
2018-04-02T21:50:56.541Z,11.67
2018-04-02T21:54:00.702Z,10.30
2018-04-02T21:57:04.570Z,10.43
2018-04-02T22:00:08.509Z,11.17
2018-04-02T22:03:13.157Z,10.30
2018-04-02T22:06:34.798Z,8.70
2018-04-02T22:09:38.991Z,8.97
2018-04-02T22:12:43.908Z,8.50
2018-04-02T22:15:47.770Z,8.70
2018-04-02T22:18:52.043Z,8.40
2018-04-02T22:21:56.650Z,8.03
2018-04-02T22:25:01.208Z,8.20
2018-04-02T22:28:05.184Z,7.87
2018-04-02T22:31:09.425Z,7.23
2018-04-02T22:34:14.002Z,7.60
2018-04-02T22:37:18.286Z,7.80
2018-04-02T22:40:22.588Z,6.87
2018-04-02T22:43:27.096Z,6.90
2018-04-02T22:46:31.344Z,7.10
2018-04-02T22:49:36.105Z,6.13
2018-04-02T22:52:41.300Z,6.30
2018-04-02T22:55:46.206Z,5.57
2018-04-02T22:58:50.064Z,5.60
2018-04-02T23:01:54.838Z,5.30
2018-04-02T23:04:58.762Z,5.03
2018-04-02T23:08:02.704Z,4.60
2018-04-02T23:11:08.842Z,4.40
2018-04-02T23:14:13.545Z,4.23
2018-04-02T23:17:17.464Z,4.33
2018-04-02T23:20:21.281Z,3.90
2018-04-02T23:23:25.860Z,3.30
2018-04-02T23:26:29.777Z,3.27
2018-04-02T23:29:33.613Z,3.53
2018-04-02T23:32:37.405Z,2.33
2018-04-02T23:35:41.605Z,2.40
2018-04-02T23:38:46.234Z,2.60
2018-04-02T23:41:50.109Z,2.60
2018-04-02T23:44:53.929Z,2.17
2018-04-02T23:47:57.821Z,1.70
2018-04-02T23:51:01.649Z,2.17
2018-04-02T23:54:06.662Z,1.87
2018-04-02T23:57:10.808Z,1.90
